Time;durP1;ratioP1;P1;durP2;ratioP2;P2;SDS_P1;SDS_P2;PMS_P1;PMS_P2;Temp;Humidity;BMP_temperature;BMP_pressure;BME280_temperature;BME280_humidity;BME280_pressure;Samples;Min_cycle;Max_cycle;Signal;HPM_P1;HPM_P2
2023/06/30 00:01:48;;;;;;;24.13;17.80;;;18.40;99.90;;;;;;5053099;28;20988;-57
2023/06/30 00:04:16;;;;;;;25.97;18.57;;;18.40;99.90;;;;;;5053098;28;20454;-57
2023/06/30 00:06:43;;;;;;;27.40;18.20;;;18.40;99.90;;;;;;5053954;28;20445;-59
2023/06/30 00:09:11;;;;;;;26.80;18.03;;;18.40;99.90;;;;;;5054073;28;20555;-58
2023/06/30 00:11:39;;;;;;;26.83;19.37;;;18.40;99.90;;;;;;5054017;28;20448;-59
2023/06/30 00:14:06;;;;;;;28.57;19.67;;;18.40;99.90;;;;;;5053741;28;20451;-59
2023/06/30 00:16:33;;;;;;;25.20;18.10;;;18.40;99.90;;;;;;5053487;28;20487;-58
2023/06/30 00:19:00;;;;;;;29.30;19.47;;;18.40;99.90;;;;;;5052977;28;20444;-59
2023/06/30 00:21:27;;;;;;;23.70;18.77;;;18.40;99.90;;;;;;5053019;28;20452;-59
2023/06/30 00:23:53;;;;;;;28.47;19.33;;;18.40;99.90;;;;;;5053114;28;20506;-59
2023/06/30 00:26:21;;;;;;;28.80;18.57;;;18.50;99.90;;;;;;5052721;28;20854;-59
2023/06/30 00:28:48;;;;;;;26.97;18.57;;;18.40;99.90;;;;;;5057101;28;20439;-58
2023/06/30 00:31:15;;;;;;;29.23;20.50;;;18.40;99.90;;;;;;5056869;28;20826;-59
2023/06/30 00:33:42;;;;;;;25.37;19.10;;;18.40;99.90;;;;;;5056961;28;20448;-58
2023/06/30 00:36:09;;;;;;;27.80;21.13;;;18.40;99.90;;;;;;5056851;28;20468;-57
2023/06/30 00:38:35;;;;;;;30.27;21.50;;;18.30;99.90;;;;;;5056821;28;20448;-57
2023/06/30 00:41:02;;;;;;;28.83;20.20;;;18.30;99.90;;;;;;5056539;28;20448;-57
2023/06/30 00:43:30;;;;;;;30.80;20.80;;;18.30;99.90;;;;;;5056380;28;20934;-58
2023/06/30 00:45:57;;;;;;;31.13;21.43;;;18.30;99.90;;;;;;5056861;28;20470;-60
2023/06/30 00:48:24;;;;;;;32.07;21.23;;;18.30;99.90;;;;;;5056948;28;20889;-58
2023/06/30 00:50:51;;;;;;;30.23;21.10;;;18.30;99.90;;;;;;5056989;28;20534;-58
2023/06/30 00:53:19;;;;;;;31.60;21.90;;;18.30;99.90;;;;;;5056412;28;20448;-59
2023/06/30 00:55:46;;;;;;;33.90;22.07;;;18.30;99.90;;;;;;5056605;28;20467;-58
2023/06/30 00:58:12;;;;;;;34.50;21.53;;;18.20;99.90;;;;;;5056674;28;20830;-57
2023/06/30 01:00:41;;;;;;;35.33;22.30;;;18.20;99.90;;;;;;5056323;28;20455;-59
2023/06/30 01:03:16;;;;;;;31.30;22.83;;;18.30;99.90;;;;;;5056757;28;20448;-59
2023/06/30 01:05:51;;;;;;;35.73;23.30;;;18.20;99.90;;;;;;5056571;28;20510;-59
2023/06/30 01:08:26;;;;;;;32.00;22.53;;;18.20;99.90;;;;;;5056265;28;20906;-57
2023/06/30 01:10:54;;;;;;;36.13;24.60;;;18.20;99.90;;;;;;5056455;28;20554;-57
2023/06/30 01:13:22;;;;;;;31.87;22.00;;;18.30;99.90;;;;;;5056646;28;20454;-58
2023/06/30 01:15:51;;;;;;;34.47;22.50;;;18.20;99.90;;;;;;5056246;28;20471;-59
2023/06/30 01:18:20;;;;;;;36.87;23.40;;;18.20;99.90;;;;;;5056398;28;20480;-58
2023/06/30 01:20:48;;;;;;;33.60;26.03;;;18.20;99.90;;;;;;5057692;28;20452;-59
2023/06/30 01:23:21;;;;;;;34.30;22.93;;;18.20;99.90;;;;;;5057443;28;20440;-59
2023/06/30 01:25:49;;;;;;;33.90;24.87;;;18.20;99.90;;;;;;5056650;28;20478;-58
2023/06/30 01:28:17;;;;;;;34.80;24.13;;;18.20;99.90;;;;;;5056201;28;20946;-57
2023/06/30 01:30:44;;;;;;;36.03;23.80;;;18.20;99.90;;;;;;5056243;28;20448;-59
2023/06/30 01:33:13;;;;;;;33.40;23.00;;;18.20;99.90;;;;;;5056063;28;20444;-59
2023/06/30 01:35:40;;;;;;;35.53;25.00;;;18.20;99.90;;;;;;5055821;28;20471;-59
2023/06/30 01:38:07;;;;;;;36.07;24.70;;;18.20;99.90;;;;;;5055594;28;20483;-58
2023/06/30 01:40:34;;;;;;;35.87;24.13;;;18.20;99.90;;;;;;5055708;28;20934;-59
2023/06/30 01:43:01;;;;;;;34.20;23.57;;;18.20;99.90;;;;;;5055790;28;20444;-58
2023/06/30 01:45:29;;;;;;;33.33;22.40;;;18.20;99.90;;;;;;5055842;28;20490;-59
2023/06/30 01:47:57;;;;;;;33.80;24.23;;;18.20;99.90;;;;;;5055386;28;20965;-59
2023/06/30 01:51:13;;;;;;;35.80;25.60;;;18.20;99.90;;;;;;5055551;28;20570;-58
2023/06/30 01:53:42;;;;;;;36.80;24.63;;;18.20;99.90;;;;;;5056105;28;20451;-60
2023/06/30 01:56:08;;;;;;;33.33;24.70;;;18.20;99.90;;;;;;5055747;28;20462;-59
2023/06/30 01:58:35;;;;;;;35.33;25.47;;;18.20;99.90;;;;;;5055740;28;20476;-59
2023/06/30 02:01:02;;;;;;;32.63;24.13;;;18.20;99.90;;;;;;5055281;28;20451;-57
2023/06/30 02:03:29;;;;;;;31.23;22.33;;;18.20;99.90;;;;;;5055299;28;20459;-58
2023/06/30 02:05:56;;;;;;;29.47;21.30;;;18.20;99.90;;;;;;5055690;28;20547;-58
2023/06/30 02:08:22;;;;;;;35.33;23.27;;;18.10;99.90;;;;;;5055873;28;20444;-59
2023/06/30 02:10:51;;;;;;;34.97;22.80;;;18.10;99.90;;;;;;5054918;28;20968;-58
2023/06/30 02:13:17;;;;;;;37.03;22.93;;;18.10;99.90;;;;;;5055335;28;20448;-58
2023/06/30 02:15:44;;;;;;;33.90;22.50;;;18.10;99.90;;;;;;5054865;28;20842;-58
2023/06/30 02:18:13;;;;;;;30.80;21.43;;;18.00;99.90;;;;;;5055289;28;20475;-59
2023/06/30 02:20:40;;;;;;;32.00;21.77;;;18.00;99.90;;;;;;5055066;28;20440;-58
2023/06/30 02:23:06;;;;;;;30.40;21.23;;;18.00;99.90;;;;;;5054906;28;20443;-58
2023/06/30 02:25:33;;;;;;;30.67;20.97;;;18.00;99.90;;;;;;5054880;28;20491;-58
2023/06/30 02:28:01;;;;;;;32.03;20.53;;;18.00;99.90;;;;;;5055645;28;20455;-58
2023/06/30 02:30:28;;;;;;;26.90;18.60;;;18.00;99.90;;;;;;5054535;28;20441;-58
2023/06/30 02:32:55;;;;;;;25.97;19.30;;;18.00;99.90;;;;;;5055256;28;20444;-59
2023/06/30 02:35:22;;;;;;;26.93;18.70;;;18.00;99.90;;;;;;5055035;28;20464;-59
2023/06/30 02:37:48;;;;;;;24.60;18.33;;;18.00;99.90;;;;;;5054983;28;20475;-58
2023/06/30 02:40:15;;;;;;;23.80;17.37;;;18.00;99.90;;;;;;5054959;28;20448;-58
2023/06/30 02:42:42;;;;;;;25.70;18.23;;;18.00;99.90;;;;;;5054919;28;20452;-59
2023/06/30 02:45:11;;;;;;;23.10;17.03;;;18.00;99.90;;;;;;5054741;28;20471;-59
2023/06/30 02:47:38;;;;;;;26.93;17.77;;;18.00;99.90;;;;;;5055398;28;20754;-57
2023/06/30 02:50:06;;;;;;;21.40;16.40;;;17.90;99.90;;;;;;5053712;28;20495;-59
2023/06/30 02:52:33;;;;;;;26.57;18.30;;;17.90;99.90;;;;;;5053975;28;20444;-58
2023/06/30 02:55:00;;;;;;;25.60;17.40;;;17.90;99.90;;;;;;5054426;28;20475;-57
2023/06/30 02:57:27;;;;;;;22.67;15.63;;;17.90;99.90;;;;;;5054401;28;20865;-59
2023/06/30 02:59:53;;;;;;;22.00;15.50;;;17.90;99.90;;;;;;5054341;28;20444;-58
2023/06/30 03:02:22;;;;;;;22.27;15.90;;;17.90;99.90;;;;;;5053976;28;20452;-58
2023/06/30 03:04:48;;;;;;;20.47;14.83;;;17.80;99.90;;;;;;5054652;28;20483;-59
2023/06/30 03:07:16;;;;;;;20.87;14.80;;;17.80;99.90;;;;;;5054138;28;20467;-59
2023/06/30 03:09:43;;;;;;;21.70;14.40;;;17.60;99.90;;;;;;5054576;28;20443;-59
2023/06/30 03:12:10;;;;;;;23.57;14.60;;;17.50;99.90;;;;;;5054029;28;20447;-59
2023/06/30 03:14:36;;;;;;;25.17;16.00;;;17.30;99.90;;;;;;5053919;28;20464;-58
2023/06/30 03:17:03;;;;;;;20.87;14.77;;;17.20;99.90;;;;;;5054107;28;20476;-58
2023/06/30 03:19:32;;;;;;;19.27;14.67;;;17.10;99.90;;;;;;5054014;28;20452;-58
2023/06/30 03:21:58;;;;;;;19.97;14.10;;;17.00;99.90;;;;;;5053693;28;20827;-58
2023/06/30 03:24:25;;;;;;;18.70;14.13;;;17.10;99.90;;;;;;5053725;28;20475;-59
2023/06/30 03:26:52;;;;;;;15.00;11.97;;;17.10;99.90;;;;;;5053759;28;20432;-58
2023/06/30 03:29:19;;;;;;;16.77;11.23;;;17.10;99.90;;;;;;5053611;28;20471;-58
2023/06/30 03:31:45;;;;;;;14.37;10.57;;;17.10;99.90;;;;;;5053652;28;20444;-58
2023/06/30 03:34:12;;;;;;;17.43;11.40;;;17.10;99.90;;;;;;5053494;28;20467;-59
2023/06/30 03:36:41;;;;;;;17.13;11.13;;;17.10;99.90;;;;;;5053303;28;20448;-58
2023/06/30 03:39:07;;;;;;;16.33;10.97;;;17.10;99.90;;;;;;5053384;28;20486;-58
2023/06/30 03:41:34;;;;;;;13.80;12.40;;;17.10;99.90;;;;;;5053407;28;20448;-58
2023/06/30 03:44:01;;;;;;;13.77;11.13;;;17.10;99.90;;;;;;5053364;28;20463;-58
2023/06/30 03:46:28;;;;;;;18.80;13.50;;;17.10;99.90;;;;;;5053399;28;20507;-59
2023/06/30 03:48:54;;;;;;;15.13;11.03;;;17.10;99.90;;;;;;5053496;28;20447;-58
2023/06/30 03:51:21;;;;;;;11.97;10.70;;;17.10;99.90;;;;;;5053501;28;20490;-58
2023/06/30 03:53:50;;;;;;;15.53;11.33;;;17.10;99.90;;;;;;5053331;28;20444;-58
2023/06/30 03:56:16;;;;;;;14.03;11.00;;;17.10;99.90;;;;;;5053402;28;20814;-59
2023/06/30 03:58:43;;;;;;;13.27;10.87;;;17.00;99.90;;;;;;5053598;28;20997;-60
2023/06/30 04:01:11;;;;;;;12.60;10.87;;;17.10;99.90;;;;;;5053448;28;20479;-59
2023/06/30 04:03:38;;;;;;;16.50;11.53;;;17.00;99.90;;;;;;5053585;28;20907;-59
2023/06/30 04:06:05;;;;;;;12.03;10.83;;;17.00;99.90;;;;;;5053752;28;20460;-59
2023/06/30 04:11:53;;;;;;;12.63;9.47;;;17.00;99.90;;;;;;5091714;28;20598;-59
2023/06/30 04:14:20;;;;;;;11.80;8.93;;;17.00;99.90;;;;;;5090670;28;20517;-58
2023/06/30 04:16:47;;;;;;;11.57;8.90;;;17.00;99.90;;;;;;5090997;28;20500;-58
2023/06/30 04:19:14;;;;;;;13.40;9.00;;;17.10;99.90;;;;;;5090637;28;20442;-58
2023/06/30 04:21:40;;;;;;;9.37;8.50;;;17.00;99.90;;;;;;5090912;28;20809;-58
2023/06/30 04:24:07;;;;;;;9.70;8.80;;;17.00;99.90;;;;;;5090747;28;20430;-59
2023/06/30 04:26:35;;;;;;;11.77;8.63;;;17.00;99.90;;;;;;5091500;22;20490;-64
2023/06/30 04:29:03;;;;;;;9.63;8.47;;;17.10;99.90;;;;;;5070287;28;20471;-66
2023/06/30 04:31:30;;;;;;;11.13;8.30;;;17.00;99.90;;;;;;5069945;28;20528;-64
2023/06/30 04:33:56;;;;;;;10.50;8.10;;;17.00;99.90;;;;;;5070103;28;20451;-63
2023/06/30 04:36:23;;;;;;;10.03;7.30;;;17.00;99.90;;;;;;5069796;28;20981;-63
2023/06/30 04:38:50;;;;;;;10.60;8.20;;;16.90;99.90;;;;;;5070276;28;20439;-64
2023/06/30 04:41:17;;;;;;;10.23;9.23;;;16.90;99.90;;;;;;5069779;28;20953;-61
2023/06/30 04:43:44;;;;;;;10.03;9.03;;;16.80;99.90;;;;;;5071750;28;20460;-63
2023/06/30 04:46:12;;;;;;;9.73;8.73;;;16.70;99.90;;;;;;5069928;28;20463;-63
2023/06/30 04:48:39;;;;;;;11.33;9.10;;;16.60;99.90;;;;;;5069774;28;20469;-63
2023/06/30 04:51:06;;;;;;;10.33;8.40;;;16.60;99.90;;;;;;5069614;28;20475;-63
2023/06/30 04:53:33;;;;;;;11.80;7.77;;;16.60;99.90;;;;;;5069649;28;20446;-64
2023/06/30 04:55:59;;;;;;;8.43;7.60;;;16.60;99.90;;;;;;5069502;28;20467;-63
2023/06/30 04:58:26;;;;;;;7.93;7.13;;;16.60;99.90;;;;;;5069244;28;20840;-65
2023/06/30 05:00:55;;;;;;;10.20;7.70;;;16.60;99.90;;;;;;5069485;28;20435;-64
2023/06/30 05:03:23;;;;;;;9.07;7.03;;;16.60;99.90;;;;;;5069936;28;20440;-64
2023/06/30 05:05:50;;;;;;;10.60;6.90;;;16.60;99.90;;;;;;5069776;28;20472;-63
2023/06/30 05:08:16;;;;;;;8.57;7.77;;;16.50;99.90;;;;;;5069897;28;20451;-64
2023/06/30 05:10:43;;;;;;;8.73;7.83;;;16.30;99.90;;;;;;5069485;28;20565;-63
2023/06/30 05:13:10;;;;;;;9.23;6.90;;;16.10;99.90;;;;;;5069433;28;20447;-61
2023/06/30 05:15:37;;;;;;;9.17;6.77;;;15.90;99.90;;;;;;5069387;28;20459;-64
2023/06/30 05:18:05;;;;;;;8.80;6.27;;;15.80;99.90;;;;;;5069225;28;20450;-64
2023/06/30 05:20:36;;;;;;;12.70;7.40;;;15.60;99.90;;;;;;5069213;28;20447;-64
2023/06/30 05:23:02;;;;;;;11.03;7.17;;;15.60;99.90;;;;;;5058124;28;20440;-63
2023/06/30 05:25:29;;;;;;;8.13;6.90;;;15.50;99.90;;;;;;5055524;28;20480;-62
2023/06/30 05:27:56;;;;;;;8.77;7.87;;;15.50;99.90;;;;;;5055448;28;20917;-62
2023/06/30 05:30:23;;;;;;;9.10;8.20;;;15.50;99.90;;;;;;5055698;28;20483;-64
2023/06/30 05:32:50;;;;;;;9.87;7.47;;;15.60;99.90;;;;;;5055567;28;20447;-64
2023/06/30 05:35:16;;;;;;;9.93;7.93;;;15.60;99.90;;;;;;5055397;28;20491;-64
2023/06/30 05:37:45;;;;;;;11.40;7.73;;;15.60;99.90;;;;;;5055721;28;20447;-62
2023/06/30 05:40:12;;;;;;;10.97;8.20;;;15.60;99.90;;;;;;5055364;28;20436;-64
2023/06/30 05:42:39;;;;;;;8.03;6.77;;;15.70;99.90;;;;;;5055368;28;20451;-64
2023/06/30 05:45:07;;;;;;;9.60;7.63;;;15.70;99.90;;;;;;5056487;28;20453;-64
2023/06/30 05:47:33;;;;;;;11.73;8.40;;;15.70;99.90;;;;;;5057024;28;20483;-64
2023/06/30 05:50:00;;;;;;;9.97;8.10;;;15.70;99.90;;;;;;5057531;28;20448;-63
2023/06/30 05:52:27;;;;;;;9.33;7.87;;;15.70;99.90;;;;;;5059600;28;20455;-65
2023/06/30 05:54:55;;;;;;;17.80;8.20;;;15.70;99.90;;;;;;5056344;28;20480;-65
2023/06/30 05:57:22;;;;;;;12.27;8.80;;;15.80;99.90;;;;;;5056083;28;20440;-64
2023/06/30 05:59:49;;;;;;;10.70;7.10;;;15.80;99.90;;;;;;5055817;28;20472;-63
2023/06/30 06:02:15;;;;;;;13.20;8.77;;;15.80;99.90;;;;;;5056111;28;20439;-64
2023/06/30 06:04:42;;;;;;;10.20;8.40;;;15.80;99.90;;;;;;5055995;28;20455;-63
2023/06/30 06:07:09;;;;;;;11.13;9.00;;;15.80;99.90;;;;;;5055582;28;20468;-61
2023/06/30 06:09:36;;;;;;;16.50;9.80;;;15.80;99.90;;;;;;5055516;28;20449;-66
2023/06/30 06:12:04;;;;;;;13.20;10.33;;;15.80;99.90;;;;;;5055215;28;20480;-64
2023/06/30 06:14:31;;;;;;;12.57;11.23;;;15.80;99.90;;;;;;5055515;28;20439;-64
2023/06/30 06:16:58;;;;;;;11.23;9.93;;;15.80;99.90;;;;;;5055505;28;20464;-64
2023/06/30 06:19:25;;;;;;;13.90;10.43;;;15.80;99.90;;;;;;5055059;28;20451;-64
2023/06/30 06:21:51;;;;;;;12.83;11.37;;;15.90;99.90;;;;;;5055832;28;20550;-65
2023/06/30 06:24:18;;;;;;;13.53;10.30;;;15.90;99.90;;;;;;5055319;28;20938;-64
2023/06/30 06:26:45;;;;;;;12.47;10.03;;;15.90;99.90;;;;;;5054280;28;20483;-64
2023/06/30 06:29:18;;;;;;;13.37;11.20;;;16.00;99.90;;;;;;5054200;28;20793;-64
2023/06/30 06:31:45;;;;;;;14.80;11.47;;;16.00;99.90;;;;;;5054851;28;20547;-64
2023/06/30 06:34:12;;;;;;;17.57;12.20;;;16.00;99.90;;;;;;5054081;28;20448;-64
2023/06/30 06:36:39;;;;;;;12.70;11.27;;;16.00;99.90;;;;;;5054406;28;20468;-64
2023/06/30 06:39:05;;;;;;;14.23;11.93;;;15.90;99.90;;;;;;5053921;28;20817;-64
2023/06/30 06:41:33;;;;;;;13.37;11.70;;;15.90;99.90;;;;;;5054281;28;20446;-63
2023/06/30 06:43:59;;;;;;;18.00;12.20;;;16.00;99.90;;;;;;5054606;28;20456;-65
2023/06/30 06:46:28;;;;;;;15.97;12.37;;;16.00;99.90;;;;;;5054321;28;20470;-64
2023/06/30 06:48:55;;;;;;;13.23;11.90;;;16.10;99.90;;;;;;5054598;28;20440;-64
2023/06/30 06:51:22;;;;;;;13.07;11.67;;;16.10;99.90;;;;;;5055216;28;20506;-66
2023/06/30 06:53:49;;;;;;;13.57;11.73;;;16.10;99.90;;;;;;5065073;28;20452;-64
2023/06/30 06:56:16;;;;;;;13.17;11.77;;;16.10;99.90;;;;;;5067462;28;20460;-64
2023/06/30 06:58:43;;;;;;;11.93;10.67;;;16.10;99.90;;;;;;5067943;28;20493;-64
2023/06/30 07:01:11;;;;;;;13.33;12.03;;;16.20;99.90;;;;;;5060588;28;20444;-65
2023/06/30 07:03:39;;;;;;;14.13;12.63;;;16.20;99.90;;;;;;5054541;28;20455;-63
2023/06/30 07:06:07;;;;;;;12.17;10.97;;;16.20;99.90;;;;;;5054413;28;20889;-63
2023/06/30 07:08:35;;;;;;;14.00;11.10;;;16.30;99.90;;;;;;5054071;28;20863;-63
2023/06/30 07:11:02;;;;;;;11.83;10.63;;;16.30;99.90;;;;;;5054320;28;20534;-63
2023/06/30 07:13:29;;;;;;;12.30;10.60;;;16.40;99.90;;;;;;5053869;28;20456;-64
2023/06/30 07:15:56;;;;;;;17.20;11.07;;;16.40;99.90;;;;;;5053525;28;21096;-64
2023/06/30 07:18:23;;;;;;;10.80;9.70;;;16.50;99.90;;;;;;5053881;28;20834;-64
2023/06/30 07:20:54;;;;;;;14.33;10.83;;;16.50;99.90;;;;;;5053694;28;20440;-63
2023/06/30 07:23:21;;;;;;;12.53;11.07;;;16.50;99.90;;;;;;5053633;28;20464;-63
2023/06/30 07:25:49;;;;;;;14.57;12.70;;;16.40;99.90;;;;;;5053302;28;20490;-64
2023/06/30 07:28:16;;;;;;;11.43;10.03;;;16.40;99.90;;;;;;5053584;28;20443;-65
2023/06/30 07:30:43;;;;;;;14.67;11.27;;;16.40;99.90;;;;;;5053417;28;20484;-64
2023/06/30 07:33:10;;;;;;;12.17;10.97;;;16.40;99.90;;;;;;5053639;28;20444;-64
2023/06/30 07:35:37;;;;;;;13.90;11.63;;;16.40;99.90;;;;;;5053533;28;21015;-64
2023/06/30 07:38:05;;;;;;;13.93;12.43;;;16.50;99.90;;;;;;5053772;28;20447;-65
2023/06/30 07:40:32;;;;;;;18.37;13.53;;;16.60;99.90;;;;;;5053641;28;20527;-63
2023/06/30 07:42:58;;;;;;;15.07;12.80;;;16.70;99.90;;;;;;5054176;28;20444;-66
2023/06/30 07:45:25;;;;;;;12.27;11.03;;;16.80;99.90;;;;;;5053132;28;20482;-64
2023/06/30 07:47:52;;;;;;;14.27;11.87;;;16.70;99.90;;;;;;5053280;28;20444;-64
2023/06/30 07:50:19;;;;;;;14.57;11.87;;;16.70;99.90;;;;;;5052822;28;20933;-65
2023/06/30 07:52:48;;;;;;;14.17;12.70;;;16.70;99.90;;;;;;5053344;28;20513;-64
2023/06/30 07:55:18;;;;;;;13.83;12.50;;;16.80;99.90;;;;;;5053184;28;20464;-64
2023/06/30 07:57:45;;;;;;;15.20;11.33;;;16.80;99.90;;;;;;5053243;28;20436;-64
2023/06/30 08:00:15;;;;;;;16.37;11.47;;;16.90;99.90;;;;;;5053436;28;20864;-62
2023/06/30 08:02:42;;;;;;;12.27;11.10;;;17.00;99.90;;;;;;5053389;28;20502;-63
2023/06/30 08:05:09;;;;;;;13.80;12.47;;;17.00;99.90;;;;;;5053340;28;20474;-64
2023/06/30 08:07:36;;;;;;;15.17;12.30;;;17.10;99.90;;;;;;5053169;28;20444;-63
2023/06/30 08:10:04;;;;;;;14.57;12.57;;;17.20;99.90;;;;;;5053746;28;20496;-63
2023/06/30 08:12:32;;;;;;;13.93;12.53;;;17.30;99.90;;;;;;5052996;28;20897;-62
2023/06/30 08:14:59;;;;;;;14.83;13.00;;;17.50;99.90;;;;;;5053013;28;20444;-63
2023/06/30 08:17:25;;;;;;;15.43;13.83;;;17.70;99.90;;;;;;5053136;28;20455;-64
2023/06/30 08:19:52;;;;;;;13.20;11.90;;;17.90;99.90;;;;;;5052805;28;20443;-64
2023/06/30 08:22:21;;;;;;;12.00;10.77;;;18.00;99.90;;;;;;5052676;28;20804;-64
2023/06/30 08:24:48;;;;;;;9.73;8.73;;;18.10;99.90;;;;;;5052629;28;20938;-64
2023/06/30 08:27:16;;;;;;;11.77;9.57;;;18.10;99.90;;;;;;5052639;28;20456;-64
2023/06/30 08:29:44;;;;;;;10.47;9.50;;;18.00;99.90;;;;;;5053149;28;20523;-63
2023/06/30 08:32:11;;;;;;;11.77;9.43;;;18.10;99.90;;;;;;5052787;28;20476;-64
2023/06/30 08:34:38;;;;;;;8.50;7.20;;;18.10;99.90;;;;;;5052739;28;20456;-64
2023/06/30 08:37:05;;;;;;;10.30;7.27;;;18.10;99.90;;;;;;5052578;28;20464;-63
2023/06/30 08:39:32;;;;;;;8.60;7.80;;;18.10;99.90;;;;;;5052783;28;20452;-63
2023/06/30 08:42:00;;;;;;;9.83;7.23;;;18.00;99.90;;;;;;5052718;28;20526;-64
2023/06/30 08:44:27;;;;;;;9.23;7.87;;;18.00;99.90;;;;;;5054371;28;20538;-64
2023/06/30 08:46:58;;;;;;;12.20;8.80;;;17.90;99.90;;;;;;5053559;28;21031;-64
2023/06/30 08:49:26;;;;;;;11.07;8.90;;;17.90;99.90;;;;;;5054740;28;20456;-64
2023/06/30 08:51:56;;;;;;;9.90;9.07;;;17.80;99.90;;;;;;5053272;28;20488;-64
2023/06/30 08:54:23;;;;;;;9.80;8.90;;;17.70;99.90;;;;;;5053430;28;20424;-64
2023/06/30 08:56:50;;;;;;;11.13;9.30;;;17.60;99.90;;;;;;5054595;28;20480;-64
2023/06/30 08:59:17;;;;;;;10.73;9.73;;;17.50;99.90;;;;;;5057803;28;20864;-63
2023/06/30 09:01:45;;;;;;;10.10;9.10;;;17.40;99.90;;;;;;5057792;28;20439;-63
2023/06/30 09:04:13;;;;;;;11.10;10.00;;;17.50;99.90;;;;;;5057207;28;20826;-63
2023/06/30 09:06:47;;;;;;;10.20;9.30;;;17.50;99.90;;;;;;5057387;28;20464;-63
2023/06/30 09:09:21;;;;;;;10.47;8.27;;;17.70;99.90;;;;;;5057507;28;20466;-64
2023/06/30 09:11:49;;;;;;;8.97;8.07;;;18.10;99.90;;;;;;5056011;28;20467;-63
2023/06/30 09:14:17;;;;;;;8.43;7.43;;;18.50;99.90;;;;;;5056761;28;20439;-64
2023/06/30 09:16:44;;;;;;;8.30;7.40;;;18.90;99.90;;;;;;5056432;28;20552;-63
2023/06/30 09:19:13;;;;;;;8.57;7.70;;;19.10;99.90;;;;;;5056949;28;20454;-64
2023/06/30 09:21:40;;;;;;;7.33;6.63;;;19.30;99.90;;;;;;5057055;28;20436;-63
2023/06/30 09:24:07;;;;;;;8.37;7.37;;;19.30;99.90;;;;;;5056179;28;20439;-63
2023/06/30 09:26:34;;;;;;;8.37;7.60;;;19.30;99.90;;;;;;5055814;28;20479;-63
2023/06/30 09:29:02;;;;;;;8.03;7.20;;;19.20;99.90;;;;;;5056089;28;20451;-63
2023/06/30 09:31:30;;;;;;;7.60;7.00;;;19.00;99.90;;;;;;5055453;28;20482;-64
2023/06/30 09:34:11;;;;;;;7.60;7.00;;;19.00;99.90;;;;;;5055913;28;20439;-62
2023/06/30 09:36:47;;;;;;;7.90;7.10;;;19.00;99.90;;;;;;5055485;28;20985;-63
2023/06/30 09:39:14;;;;;;;8.80;7.80;;;19.10;99.90;;;;;;5055506;28;20774;-63
2023/06/30 09:41:42;;;;;;;7.50;6.80;;;19.20;99.90;;;;;;5055673;28;20803;-64
2023/06/30 09:44:11;;;;;;;7.03;6.33;;;19.30;99.90;;;;;;5055988;28;20444;-65
2023/06/30 09:46:44;;;;;;;7.93;7.13;;;19.40;99.90;;;;;;5055861;28;20464;-63
2023/06/30 09:49:23;;;;;;;7.87;7.17;;;19.60;99.90;;;;;;5055734;28;20433;-64
2023/06/30 09:51:51;;;;;;;10.17;7.63;;;19.70;99.90;;;;;;5055538;28;20464;-66
2023/06/30 09:54:19;;;;;;;9.73;6.53;;;19.80;99.90;;;;;;5055101;28;20451;-63
2023/06/30 09:56:46;;;;;;;9.23;7.00;;;20.00;99.90;;;;;;5055524;28;20468;-63
2023/06/30 09:59:14;;;;;;;7.50;6.90;;;20.30;99.90;;;;;;5056092;28;20433;-65
2023/06/30 10:01:41;;;;;;;9.90;7.70;;;20.50;99.90;;;;;;5055879;28;20475;-63
2023/06/30 10:04:08;;;;;;;8.57;7.77;;;20.70;99.90;;;;;;5056064;28;20453;-64
2023/06/30 10:06:36;;;;;;;9.40;8.07;;;20.90;99.90;;;;;;5055474;28;20476;-62
2023/06/30 10:09:06;;;;;;;8.50;7.40;;;21.00;99.90;;;;;;5054805;28;20940;-64
2023/06/30 10:11:34;;;;;;;8.03;7.33;;;21.10;99.90;;;;;;5055096;28;20521;-64
2023/06/30 10:14:02;;;;;;;7.73;7.13;;;21.00;99.90;;;;;;5055371;28;20438;-63
2023/06/30 10:16:29;;;;;;;7.60;6.93;;;20.80;99.90;;;;;;5054907;28;20464;-64
2023/06/30 10:18:58;;;;;;;7.17;5.97;;;20.70;99.90;;;;;;5055674;28;20450;-64
2023/06/30 10:21:24;;;;;;;8.43;7.30;;;20.60;99.90;;;;;;5055904;28;20451;-65
2023/06/30 10:23:53;;;;;;;6.23;5.63;;;20.40;99.90;;;;;;5056474;28;20491;-64
2023/06/30 10:26:22;;;;;;;6.80;6.20;;;20.40;99.90;;;;;;5075853;22;20487;-58
2023/06/30 10:28:49;;;;;;;6.90;6.03;;;20.30;99.90;;;;;;5076754;28;20444;-60
2023/06/30 10:31:16;;;;;;;8.63;6.90;;;20.30;99.90;;;;;;5076070;28;20817;-60
2023/06/30 10:33:43;;;;;;;8.10;6.57;;;20.30;99.90;;;;;;5076256;28;20511;-60
2023/06/30 10:36:10;;;;;;;7.20;6.47;;;20.40;99.90;;;;;;5079333;28;20471;-60
2023/06/30 10:38:38;;;;;;;7.77;6.60;;;20.50;99.90;;;;;;5080725;28;20458;-59
2023/06/30 10:41:17;;;;;;;7.53;6.87;;;20.60;99.90;;;;;;5080717;28;20448;-59
2023/06/30 10:44:07;;;;;;;11.37;7.97;;;20.90;99.90;;;;;;5079756;28;20530;-59
2023/06/30 10:46:53;;;;;;;7.83;7.00;;;21.20;99.90;;;;;;5079681;28;20547;-58
2023/06/30 10:49:23;;;;;;;7.57;6.80;;;21.60;99.90;;;;;;5077132;28;20449;-58
2023/06/30 10:51:51;;;;;;;6.57;6.07;;;22.00;99.10;;;;;;5076007;28;20865;-59
2023/06/30 10:54:21;;;;;;;7.10;6.37;;;22.30;97.30;;;;;;5076292;28;20450;-59
2023/06/30 10:56:48;;;;;;;8.47;5.43;;;22.40;96.60;;;;;;5075877;28;20984;-60
2023/06/30 10:59:22;;;;;;;6.03;5.43;;;22.40;96.60;;;;;;5076027;28;20442;-59
2023/06/30 11:02:11;;;;;;;7.60;6.57;;;22.30;95.80;;;;;;5076116;28;20985;-59
2023/06/30 11:04:38;;;;;;;5.20;4.53;;;22.00;95.90;;;;;;5075388;28;20503;-59
2023/06/30 11:07:07;;;;;;;6.83;5.67;;;21.70;96.50;;;;;;5075741;28;20470;-61
2023/06/30 11:10:00;;;;;;;6.30;5.63;;;21.40;97.10;;;;;;5075871;28;20503;-59
2023/06/30 11:12:28;;;;;;;6.20;5.60;;;21.10;97.80;;;;;;5075113;28;20477;-60
2023/06/30 11:14:58;;;;;;;7.33;6.27;;;20.70;98.20;;;;;;5074892;28;20448;-59
2023/06/30 11:17:26;;;;;;;7.23;6.50;;;20.40;99.40;;;;;;5075441;28;20471;-59
2023/06/30 11:20:09;;;;;;;8.23;7.53;;;19.90;99.90;;;;;;5075608;28;20446;-59
2023/06/30 11:22:35;;;;;;;10.57;8.63;;;19.20;99.90;;;;;;5077371;28;20441;-58
2023/06/30 11:25:04;;;;;;;9.43;7.30;;;18.50;99.90;;;;;;5075709;28;20443;-61
2023/06/30 11:27:31;;;;;;;8.37;7.40;;;18.10;99.90;;;;;;5076170;28;20521;-59
2023/06/30 11:30:01;;;;;;;10.10;8.80;;;17.80;99.90;;;;;;5076021;28;20447;-60
2023/06/30 11:32:29;;;;;;;13.83;10.20;;;17.70;99.90;;;;;;5076442;28;20471;-60
2023/06/30 11:34:57;;;;;;;12.23;10.00;;;17.60;99.90;;;;;;5075513;28;20465;-59
2023/06/30 11:37:24;;;;;;;10.57;9.67;;;17.60;99.90;;;;;;5074672;28;20813;-59
2023/06/30 11:39:51;;;;;;;9.43;8.47;;;17.70;99.90;;;;;;5075133;28;20451;-59
2023/06/30 11:42:18;;;;;;;14.60;8.30;;;17.80;99.90;;;;;;5074466;28;20435;-58
2023/06/30 11:44:45;;;;;;;9.17;8.30;;;18.10;99.90;;;;;;5074908;28;20451;-58
2023/06/30 11:47:14;;;;;;;7.90;7.10;;;18.70;99.90;;;;;;5074699;28;20481;-58
2023/06/30 11:49:41;;;;;;;9.07;8.13;;;19.20;99.90;;;;;;5074713;28;20447;-59
2023/06/30 11:52:08;;;;;;;6.70;6.00;;;19.80;99.90;;;;;;5073721;28;20439;-57
2023/06/30 11:54:36;;;;;;;6.43;5.80;;;20.40;99.90;;;;;;5074079;28;20819;-58
2023/06/30 11:57:04;;;;;;;6.00;5.40;;;20.60;99.90;;;;;;5074360;28;20517;-56
2023/06/30 11:59:31;;;;;;;6.50;5.20;;;20.70;99.90;;;;;;5074088;28;20451;-57
2023/06/30 12:02:00;;;;;;;5.20;4.80;;;20.90;99.90;;;;;;5074253;28;20797;-59
2023/06/30 12:04:35;;;;;;;5.83;4.90;;;21.40;99.90;;;;;;5073575;28;20834;-59
2023/06/30 12:07:04;;;;;;;6.50;4.70;;;22.20;99.90;;;;;;5074215;28;20474;-59
2023/06/30 12:09:31;;;;;;;5.63;4.90;;;22.90;97.30;;;;;;5074211;28;20450;-59
2023/06/30 12:12:00;;;;;;;5.43;4.73;;;23.40;93.30;;;;;;5074032;28;20450;-58
2023/06/30 12:14:27;;;;;;;4.53;4.13;;;23.80;90.60;;;;;;5073505;28;20442;-58
2023/06/30 12:16:54;;;;;;;7.00;5.03;;;23.50;87.50;;;;;;5073940;28;21046;-57
2023/06/30 12:19:25;;;;;;;4.63;4.23;;;23.30;88.00;;;;;;5074663;28;20446;-58
2023/06/30 12:21:55;;;;;;;5.70;5.10;;;22.90;88.70;;;;;;5074169;28;20456;-60
2023/06/30 12:24:22;;;;;;;6.90;5.20;;;22.70;89.60;;;;;;5074316;28;20928;-59
2023/06/30 12:26:50;;;;;;;13.80;7.03;;;22.40;90.20;;;;;;5073759;28;20476;-59
2023/06/30 12:29:18;;;;;;;6.50;5.50;;;22.30;91.20;;;;;;5074035;28;20470;-59
2023/06/30 12:31:47;;;;;;;4.30;4.00;;;22.30;91.80;;;;;;5074202;28;20966;-60
2023/06/30 12:34:14;;;;;;;4.93;3.00;;;22.00;91.40;;;;;;5078518;28;20508;-59
2023/06/30 12:36:41;;;;;;;6.43;3.00;;;21.70;90.90;;;;;;5078473;28;20488;-59
2023/06/30 12:39:09;;;;;;;2.80;2.50;;;21.40;90.20;;;;;;5078402;28;20421;-58
2023/06/30 12:41:36;;;;;;;3.50;2.50;;;21.20;88.90;;;;;;5077612;28;20811;-61
2023/06/30 12:44:04;;;;;;;2.50;2.30;;;21.20;87.40;;;;;;5078048;28;20451;-59